Time;durP1;ratioP1;P1;durP2;ratioP2;P2;SDS_P1;SDS_P2;PMS_P1;PMS_P2;Temp;Humidity;BMP_temperature;BMP_pressure;BME280_temperature;BME280_humidity;BME280_pressure;Samples;Min_cycle;Max_cycle;Signal;HPM_P1;HPM_P2
2023/01/12 00:01:09;;;;;;;6.28;2.35;;;;;;;;;;5083652;28;20028;-69
2023/01/12 00:03:54;;;;;;;8.30;1.92;;;;;;;;;;5109203;28;20544;-72
2023/01/12 00:06:39;;;;;;;5.93;1.70;;;;;;;;;;5098816;28;20031;-71
2023/01/12 00:09:25;;;;;;;4.38;1.25;;;;;;;;;;5105028;28;20064;-71
2023/01/12 00:12:11;;;;;;;4.82;1.40;;;;;;;;;;5081379;28;20028;-75
2023/01/12 00:14:56;;;;;;;7.97;1.40;;;;;;;;;;5102482;28;20076;-75
2023/01/12 00:17:41;;;;;;;5.32;1.40;;;;;;;;;;5100488;28;20432;-77
2023/01/12 00:20:26;;;;;;;6.45;1.92;;;;;;;;;;5103111;28;20069;-75
2023/01/12 00:23:12;;;;;;;4.95;1.08;;;;;;;;;;5101292;28;20368;-76
2023/01/12 00:25:57;;;;;;;3.53;1.48;;;;;;;;;;5105746;28;20497;-77
2023/01/12 00:28:42;;;;;;;7.10;2.00;;;;;;;;;;5109439;28;20027;-70
2023/01/12 00:31:27;;;;;;;2.33;1.13;;;;;;;;;;5098474;28;20039;-68
2023/01/12 00:34:12;;;;;;;4.28;1.30;;;;;;;;;;5106329;28;20381;-67
2023/01/12 00:37:01;;;;;;;3.67;1.40;;;;;;;;;;5105820;28;20411;-68
2023/01/12 00:39:46;;;;;;;9.63;2.85;;;;;;;;;;5103624;28;20416;-70
2023/01/12 00:45:36;;;;;;;5.78;1.40;;;;;;;;;;5105202;28;20351;-75
2023/01/12 00:48:21;;;;;;;8.60;2.03;;;;;;;;;;5079360;28;20084;-76
2023/01/12 00:51:07;;;;;;;7.10;1.35;;;;;;;;;;5080310;28;20051;-77
2023/01/12 00:53:52;;;;;;;4.03;1.40;;;;;;;;;;5111769;28;20259;-77
2023/01/12 00:56:37;;;;;;;5.50;1.40;;;;;;;;;;5106000;28;20062;-78
2023/01/12 00:59:22;;;;;;;5.60;1.70;;;;;;;;;;5092543;28;20030;-77
2023/01/12 01:02:08;;;;;;;6.55;1.92;;;;;;;;;;5101924;28;20031;-80
2023/01/12 01:04:53;;;;;;;2.67;1.17;;;;;;;;;;5108021;28;20043;-70
2023/01/12 01:07:38;;;;;;;7.70;1.92;;;;;;;;;;5099621;28;20474;-74
2023/01/12 01:10:24;;;;;;;5.22;2.47;;;;;;;;;;5104566;28;20365;-75
2023/01/12 01:13:09;;;;;;;6.32;1.98;;;;;;;;;;5089558;28;20126;-73
2023/01/12 01:15:57;;;;;;;3.10;1.17;;;;;;;;;;5103891;28;20020;-75
2023/01/12 01:18:43;;;;;;;6.22;1.67;;;;;;;;;;5107858;28;20054;-75
2023/01/12 01:21:28;;;;;;;7.00;1.27;;;;;;;;;;5083319;28;20023;-68
2023/01/12 01:24:13;;;;;;;2.30;1.67;;;;;;;;;;5086433;28;20110;-74
2023/01/12 01:26:58;;;;;;;5.38;2.00;;;;;;;;;;5081152;28;20074;-71
2023/01/12 01:29:43;;;;;;;8.38;1.98;;;;;;;;;;5086464;28;20128;-71
2023/01/12 01:32:29;;;;;;;8.73;2.35;;;;;;;;;;5086880;28;20115;-69
2023/01/12 01:35:14;;;;;;;4.45;1.42;;;;;;;;;;5074347;28;20024;-69
2023/01/12 01:37:59;;;;;;;5.68;1.50;;;;;;;;;;5087607;28;20054;-70
2023/01/12 01:40:44;;;;;;;6.60;1.83;;;;;;;;;;5086837;28;20107;-78
2023/01/12 01:43:48;;;;;;;9.27;1.75;;;;;;;;;;5087226;28;20391;-79
2023/01/12 01:46:40;;;;;;;7.22;2.05;;;;;;;;;;5072947;28;20363;-77
2023/01/12 01:49:31;;;;;;;4.88;1.30;;;;;;;;;;5073716;28;20036;-80
2023/01/12 01:52:31;;;;;;;4.53;1.55;;;;;;;;;;5086899;28;20466;-78
2023/01/12 01:55:21;;;;;;;3.08;1.20;;;;;;;;;;5073348;28;20039;-78
2023/01/12 01:58:11;;;;;;;5.78;1.50;;;;;;;;;;5084487;28;20091;-73
2023/01/12 02:00:56;;;;;;;7.63;1.85;;;;;;;;;;5083924;28;20510;-68
2023/01/12 02:03:43;;;;;;;5.75;1.17;;;;;;;;;;5086865;28;20056;-83
2023/01/12 02:06:28;;;;;;;6.22;1.83;;;;;;;;;;5075148;28;20480;-85
2023/01/12 02:09:16;;;;;;;4.13;1.52;;;;;;;;;;5073389;28;20031;-84
2023/01/12 02:18:13;;;;;;;7.00;1.52;;;;;;;;;;5086919;28;20032;-70
2023/01/12 02:21:08;;;;;;;5.95;2.55;;;;;;;;;;5086683;28;20440;-72
2023/01/12 02:24:12;;;;;;;3.60;1.10;;;;;;;;;;5072638;28;20251;-70
2023/01/12 02:27:24;;;;;;;10.57;1.98;;;;;;;;;;5090894;28;20601;-69
2023/01/12 02:30:28;;;;;;;7.70;1.77;;;;;;;;;;5070831;28;20103;-70
2023/01/12 02:33:13;;;;;;;6.45;2.35;;;;;;;;;;5091606;28;20016;-72
2023/01/12 02:36:02;;;;;;;2.50;1.52;;;;;;;;;;5090571;28;20512;-74
2023/01/12 02:39:01;;;;;;;5.32;2.67;;;;;;;;;;5081345;28;20455;-69
2023/01/12 02:44:54;;;;;;;8.27;1.58;;;;;;;;;;5090367;28;20028;-68
2023/01/12 02:47:45;;;;;;;4.13;1.57;;;;;;;;;;5090532;28;20024;-69
2023/01/12 02:50:34;;;;;;;3.83;1.83;;;;;;;;;;5065008;28;20107;-69
2023/01/12 02:53:25;;;;;;;5.80;1.92;;;;;;;;;;5090643;28;20390;-76
2023/01/12 02:56:15;;;;;;;5.32;1.70;;;;;;;;;;5090714;28;20063;-64
2023/01/12 02:59:10;;;;;;;5.10;1.73;;;;;;;;;;5096124;28;20574;-77
2023/01/12 03:01:58;;;;;;;7.72;1.50;;;;;;;;;;5093869;28;20024;-76
2023/01/12 03:04:43;;;;;;;6.45;1.65;;;;;;;;;;5079412;28;20250;-77
2023/01/12 03:07:34;;;;;;;5.10;1.58;;;;;;;;;;5090155;28;20175;-77
2023/01/12 03:10:30;;;;;;;5.65;1.40;;;;;;;;;;5076469;28;20028;-75
2023/01/12 03:13:16;;;;;;;4.93;1.27;;;;;;;;;;5090144;28;20065;-74
2023/01/12 03:16:03;;;;;;;5.07;1.05;;;;;;;;;;5090521;28;20424;-77
2023/01/12 03:19:02;;;;;;;5.95;2.00;;;;;;;;;;5076334;28;20066;-79
2023/01/12 03:21:47;;;;;;;6.30;1.80;;;;;;;;;;5081201;28;20766;-80
2023/01/12 03:24:36;;;;;;;6.03;1.77;;;;;;;;;;5076087;28;20043;-78
2023/01/12 03:27:24;;;;;;;8.65;2.05;;;;;;;;;;5090087;28;20024;-78
2023/01/12 03:30:18;;;;;;;6.78;2.03;;;;;;;;;;5090101;28;20108;-76
2023/01/12 03:33:05;;;;;;;3.95;1.60;;;;;;;;;;5076044;28;20036;-76
2023/01/12 03:35:52;;;;;;;4.43;1.65;;;;;;;;;;5082587;28;20028;-75
2023/01/12 03:38:45;;;;;;;6.53;1.83;;;;;;;;;;5066869;28;20119;-73
2023/01/12 03:41:47;;;;;;;7.45;1.90;;;;;;;;;;5075222;28;20019;-74
2023/01/12 03:44:38;;;;;;;6.43;1.60;;;;;;;;;;5085262;28;20028;-73
2023/01/12 03:47:25;;;;;;;10.88;1.73;;;;;;;;;;5075948;28;20028;-73
2023/01/12 03:50:16;;;;;;;8.02;1.92;;;;;;;;;;5087736;28;20387;-72
2023/01/12 03:53:04;;;;;;;6.47;1.55;;;;;;;;;;5075493;28;20020;-77
2023/01/12 03:55:51;;;;;;;7.38;1.48;;;;;;;;;;5089690;28;20443;-77
2023/01/12 03:58:36;;;;;;;6.95;1.70;;;;;;;;;;5074453;28;20020;-77
2023/01/12 04:01:21;;;;;;;10.75;2.22;;;;;;;;;;5089298;28;20028;-77
2023/01/12 04:04:07;;;;;;;6.45;2.22;;;;;;;;;;5078359;28;20052;-77
2023/01/12 04:06:52;;;;;;;6.55;1.42;;;;;;;;;;5096686;28;20090;-77
2023/01/12 04:09:37;;;;;;;8.32;2.28;;;;;;;;;;5075153;28;20509;-70
2023/01/12 04:12:22;;;;;;;9.68;2.47;;;;;;;;;;5089638;28;20022;-76
2023/01/12 04:15:08;;;;;;;4.47;1.70;;;;;;;;;;5089317;28;20032;-76
2023/01/12 04:17:53;;;;;;;5.53;2.08;;;;;;;;;;5086158;28;20129;-76
2023/01/12 04:20:39;;;;;;;8.13;2.28;;;;;;;;;;5098421;28;20485;-74
2023/01/12 04:23:24;;;;;;;5.75;1.35;;;;;;;;;;5086866;28;20046;-74
2023/01/12 04:26:09;;;;;;;7.30;1.92;;;;;;;;;;5077021;28;20595;-67
2023/01/12 04:28:54;;;;;;;7.70;2.10;;;;;;;;;;5074276;28;20020;-69
2023/01/12 04:31:39;;;;;;;6.22;1.67;;;;;;;;;;5068907;28;20016;-68
2023/01/12 04:34:25;;;;;;;10.70;2.20;;;;;;;;;;5085045;28;20058;-70
2023/01/12 04:37:12;;;;;;;12.30;2.75;;;;;;;;;;5086909;28;20066;-69
2023/01/12 04:39:58;;;;;;;4.75;1.88;;;;;;;;;;5094993;28;20085;-72
2023/01/12 04:42:59;;;;;;;7.80;1.80;;;;;;;;;;5072336;28;20371;-69
2023/01/12 04:45:46;;;;;;;9.27;2.42;;;;;;;;;;5088961;28;20042;-78
2023/01/12 04:48:32;;;;;;;7.47;1.80;;;;;;;;;;5069496;28;20411;-74
2023/01/12 04:51:17;;;;;;;4.97;1.60;;;;;;;;;;5083558;28;20395;-75
2023/01/12 04:54:02;;;;;;;10.25;2.03;;;;;;;;;;5089641;28;20019;-75
2023/01/12 04:56:48;;;;;;;9.93;2.33;;;;;;;;;;5089947;28;20027;-77
2023/01/12 04:59:33;;;;;;;11.32;2.50;;;;;;;;;;5081695;28;20407;-75
2023/01/12 05:02:18;;;;;;;9.30;2.33;;;;;;;;;;5085991;28;20069;-79
2023/01/12 05:05:04;;;;;;;10.63;2.45;;;;;;;;;;5084408;28;20067;-69
2023/01/12 05:10:54;;;;;;;11.85;2.50;;;;;;;;;;5095716;28;20036;-69
2023/01/12 05:13:40;;;;;;;11.85;2.42;;;;;;;;;;5087450;28;20505;-69
2023/01/12 05:16:26;;;;;;;6.05;2.13;;;;;;;;;;5088479;28;20024;-70
2023/01/12 05:19:11;;;;;;;9.52;2.85;;;;;;;;;;5064192;28;20032;-69
2023/01/12 05:21:56;;;;;;;8.45;2.67;;;;;;;;;;5088022;28;20024;-70
2023/01/12 05:24:41;;;;;;;10.07;2.08;;;;;;;;;;5087896;28;20063;-77
2023/01/12 05:27:27;;;;;;;8.57;2.60;;;;;;;;;;5088009;28;20034;-80
2023/01/12 05:30:12;;;;;;;6.00;1.92;;;;;;;;;;5087993;28;20028;-79
2023/01/12 05:32:57;;;;;;;4.57;1.77;;;;;;;;;;5072854;28;20475;-78
2023/01/12 05:35:43;;;;;;;10.38;2.05;;;;;;;;;;5088046;28;20020;-78
2023/01/12 05:38:28;;;;;;;8.23;2.95;;;;;;;;;;5073605;28;20089;-78
2023/01/12 05:41:13;;;;;;;10.70;2.10;;;;;;;;;;5088268;28;20024;-75
2023/01/12 05:43:58;;;;;;;7.22;2.38;;;;;;;;;;5093923;28;20028;-77
2023/01/12 05:46:44;;;;;;;6.63;2.35;;;;;;;;;;5087282;28;20027;-77
2023/01/12 05:49:29;;;;;;;10.68;2.50;;;;;;;;;;5075843;28;20425;-76
2023/01/12 05:52:14;;;;;;;6.63;2.10;;;;;;;;;;5076608;28;20028;-77
2023/01/12 05:54:59;;;;;;;9.25;3.33;;;;;;;;;;5085484;28;20111;-77
2023/01/12 05:57:44;;;;;;;12.75;3.25;;;;;;;;;;5087023;28;20531;-77
2023/01/12 06:00:30;;;;;;;15.38;2.47;;;;;;;;;;5078805;28;20107;-69
2023/01/12 06:03:15;;;;;;;7.03;2.33;;;;;;;;;;5086467;28;20059;-70
2023/01/12 06:06:00;;;;;;;6.07;2.40;;;;;;;;;;5086758;28;20516;-70
2023/01/12 06:08:46;;;;;;;12.73;2.92;;;;;;;;;;5086684;28;20520;-70
2023/01/12 06:14:35;;;;;;;11.70;2.90;;;;;;;;;;5116812;28;20012;-70
2023/01/12 06:17:20;;;;;;;12.02;2.42;;;;;;;;;;5088216;28;20032;-84
2023/01/12 06:20:06;;;;;;;7.45;2.70;;;;;;;;;;5087729;28;20039;-84
2023/01/12 06:22:54;;;;;;;7.65;2.05;;;;;;;;;;5085899;28;20020;-85
2023/01/12 06:25:39;;;;;;;10.48;2.42;;;;;;;;;;5072964;28;20498;-86
2023/01/12 06:28:24;;;;;;;10.45;2.22;;;;;;;;;;5087234;28;20042;-83
2023/01/12 06:31:10;;;;;;;7.78;2.28;;;;;;;;;;5074642;28;20016;-83
2023/01/12 06:33:55;;;;;;;6.80;1.58;;;;;;;;;;5087269;28;20043;-76
2023/01/12 06:36:41;;;;;;;7.90;2.38;;;;;;;;;;5074070;28;20059;-73
2023/01/12 06:39:26;;;;;;;3.63;1.60;;;;;;;;;;5075472;28;20371;-68
2023/01/12 06:42:30;;;;;;;6.00;2.20;;;;;;;;;;5087160;28;20032;-66
2023/01/12 06:45:15;;;;;;;8.23;3.13;;;;;;;;;;5073145;28;20028;-66
2023/01/12 06:48:01;;;;;;;15.75;2.53;;;;;;;;;;5092837;28;20499;-65
2023/01/12 06:50:46;;;;;;;10.68;3.05;;;;;;;;;;5086988;28;20032;-67
2023/01/12 06:53:31;;;;;;;7.30;2.10;;;;;;;;;;5086731;28;20034;-77
2023/01/12 06:56:16;;;;;;;6.72;2.25;;;;;;;;;;5087239;28;20020;-72
2023/01/12 06:59:02;;;;;;;10.40;2.50;;;;;;;;;;5086708;28;20024;-73
2023/01/12 07:01:47;;;;;;;11.02;3.15;;;;;;;;;;5085118;28;20038;-73
2023/01/12 07:04:32;;;;;;;7.60;2.35;;;;;;;;;;5086283;28;20463;-72
2023/01/12 07:07:17;;;;;;;7.40;2.20;;;;;;;;;;5087038;28;20027;-76
2023/01/12 07:10:03;;;;;;;10.75;2.45;;;;;;;;;;5072335;28;20024;-75
2023/01/12 07:12:49;;;;;;;11.20;2.55;;;;;;;;;;5076542;28;20027;-84
2023/01/12 07:15:34;;;;;;;12.57;2.40;;;;;;;;;;5090505;28;20020;-70
2023/01/12 07:18:19;;;;;;;15.82;2.55;;;;;;;;;;5080719;28;20381;-69
2023/01/12 07:21:06;;;;;;;7.80;2.33;;;;;;;;;;5079066;28;20175;-69
2023/01/12 07:23:51;;;;;;;8.18;2.55;;;;;;;;;;5086568;28;20024;-70
2023/01/12 07:26:36;;;;;;;4.70;1.55;;;;;;;;;;5089850;28;20474;-70
2023/01/12 07:29:21;;;;;;;9.20;1.83;;;;;;;;;;5089966;28;20050;-77
2023/01/12 07:32:07;;;;;;;6.70;1.60;;;;;;;;;;5090215;28;20024;-74
2023/01/12 07:34:52;;;;;;;6.40;1.73;;;;;;;;;;5089729;28;20540;-77
2023/01/12 07:37:37;;;;;;;6.72;2.72;;;;;;;;;;5090030;28;20028;-76
2023/01/12 07:40:22;;;;;;;7.40;1.85;;;;;;;;;;5089777;28;20066;-78
2023/01/12 07:43:08;;;;;;;6.53;1.70;;;;;;;;;;5092490;28;20336;-78
2023/01/12 07:45:57;;;;;;;6.18;1.30;;;;;;;;;;5090148;28;20531;-77
2023/01/12 07:48:42;;;;;;;7.03;2.45;;;;;;;;;;5084541;28;20032;-72
2023/01/12 07:51:28;;;;;;;9.52;2.13;;;;;;;;;;5080710;28;20175;-79
2023/01/12 07:54:14;;;;;;;10.18;1.98;;;;;;;;;;5080890;28;20478;-77
2023/01/12 07:56:59;;;;;;;6.53;1.88;;;;;;;;;;5075965;28;20024;-78
2023/01/12 07:59:44;;;;;;;5.05;1.73;;;;;;;;;;5082865;28;20038;-76
2023/01/12 08:02:29;;;;;;;3.90;1.55;;;;;;;;;;5089616;28;20028;-76
2023/01/12 08:05:15;;;;;;;9.38;2.80;;;;;;;;;;5088904;28;20048;-77
2023/01/12 08:08:00;;;;;;;12.05;2.35;;;;;;;;;;5089734;28;20027;-77
2023/01/12 08:10:48;;;;;;;11.05;2.97;;;;;;;;;;5088978;28;20024;-77
2023/01/12 08:13:34;;;;;;;6.55;2.15;;;;;;;;;;5089197;28;20034;-78
2023/01/12 08:16:23;;;;;;;10.95;3.03;;;;;;;;;;5089216;28;20032;-76
2023/01/12 08:19:10;;;;;;;5.82;1.80;;;;;;;;;;5089104;28;20030;-77
2023/01/12 08:21:58;;;;;;;12.40;3.90;;;;;;;;;;5078461;28;20013;-78
2023/01/12 08:24:46;;;;;;;8.38;1.73;;;;;;;;;;5092097;28;20516;-74
2023/01/12 08:27:33;;;;;;;5.15;1.73;;;;;;;;;;5075004;28;20085;-72
2023/01/12 08:30:19;;;;;;;3.85;1.52;;;;;;;;;;5088529;28;20024;-73
2023/01/12 08:33:04;;;;;;;8.15;2.15;;;;;;;;;;5088385;28;20016;-75
2023/01/12 08:35:49;;;;;;;9.30;2.67;;;;;;;;;;5088556;28;20156;-73
2023/01/12 08:38:34;;;;;;;6.50;1.90;;;;;;;;;;5074732;28;20027;-73
2023/01/12 08:41:32;;;;;;;6.07;2.67;;;;;;;;;;5086708;28;20402;-72
2023/01/12 08:44:17;;;;;;;8.80;2.13;;;;;;;;;;5069099;28;20032;-71
2023/01/12 08:47:03;;;;;;;8.40;2.00;;;;;;;;;;5088713;28;20020;-69
2023/01/12 08:49:49;;;;;;;8.07;2.45;;;;;;;;;;5069007;28;20107;-68
2023/01/12 08:52:34;;;;;;;5.63;1.48;;;;;;;;;;5088928;28;20020;-69
2023/01/12 08:55:19;;;;;;;6.88;1.90;;;;;;;;;;5096203;28;20076;-69
2023/01/12 08:58:04;;;;;;;6.90;2.50;;;;;;;;;;5069558;28;20016;-71
2023/01/12 09:00:50;;;;;;;7.07;1.73;;;;;;;;;;5073758;28;20038;-68
2023/01/12 09:03:35;;;;;;;16.85;2.80;;;;;;;;;;5088041;28;20052;-76
2023/01/12 09:06:22;;;;;;;9.10;2.60;;;;;;;;;;5066495;22;20052;-79
2023/01/12 09:09:09;;;;;;;11.23;2.97;;;;;;;;;;5030665;28;20041;-80
2023/01/12 09:11:54;;;;;;;6.47;2.28;;;;;;;;;;5045327;28;20025;-80
2023/01/12 09:14:40;;;;;;;9.30;2.08;;;;;;;;;;5041354;28;20388;-79
2023/01/12 09:17:25;;;;;;;6.15;2.45;;;;;;;;;;5048586;28;20052;-80
2023/01/12 09:20:10;;;;;;;10.73;2.10;;;;;;;;;;5047724;28;20033;-75
2023/01/12 09:22:56;;;;;;;9.10;1.92;;;;;;;;;;5041911;28;20480;-75
2023/01/12 09:25:41;;;;;;;6.32;1.60;;;;;;;;;;5048222;28;20030;-75
2023/01/12 09:28:26;;;;;;;6.07;1.85;;;;;;;;;;5052469;28;20082;-76
2023/01/12 09:31:15;;;;;;;8.15;2.47;;;;;;;;;;5047137;28;20082;-75
2023/01/12 09:34:01;;;;;;;5.47;2.10;;;;;;;;;;5040120;28;20029;-75
2023/01/12 09:36:47;;;;;;;8.18;2.28;;;;;;;;;;5031763;28;20036;-75
2023/01/12 09:39:32;;;;;;;4.10;1.40;;;;;;;;;;5031778;28;20515;-69
2023/01/12 09:48:27;;;;;;;6.05;1.85;;;;;;;;;;5044176;28;20037;-70
2023/01/12 09:51:32;;;;;;;8.07;1.65;;;;;;;;;;5039358;28;20036;-69
2023/01/12 09:54:18;;;;;;;5.22;1.52;;;;;;;;;;5037231;28;20036;-69
2023/01/12 09:57:03;;;;;;;8.13;1.45;;;;;;;;;;5021327;28;20036;-69
2023/01/12 09:59:56;;;;;;;6.75;1.70;;;;;;;;;;5045693;28;20034;-67
2023/01/12 10:03:00;;;;;;;6.32;1.40;;;;;;;;;;5033567;28;20040;-69
2023/01/12 10:05:47;;;;;;;5.53;1.50;;;;;;;;;;5038346;28;20048;-69
2023/01/12 10:08:40;;;;;;;7.32;2.30;;;;;;;;;;5037118;28;20025;-70
2023/01/12 10:11:30;;;;;;;4.35;1.33;;;;;;;;;;5041031;28;20536;-69
2023/01/12 10:14:22;;;;;;;8.88;2.05;;;;;;;;;;5038720;28;20036;-68
2023/01/12 10:17:13;;;;;;;4.68;1.73;;;;;;;;;;5042892;28;20595;-73
2023/01/12 10:20:07;;;;;;;6.95;1.90;;;;;;;;;;5038060;28;20037;-70
2023/01/12 10:23:17;;;;;;;7.45;2.05;;;;;;;;;;5016810;28;20025;-69
2023/01/12 10:26:22;;;;;;;4.97;1.30;;;;;;;;;;5029106;28;20476;-70
2023/01/12 10:29:09;;;;;;;8.80;2.35;;;;;;;;;;5039690;28;20541;-70
2023/01/12 10:31:54;;;;;;;11.35;2.80;;;;;;;;;;5043472;28;20021;-71
2023/01/12 10:34:50;;;;;;;13.43;3.53;;;;;;;;;;5030443;28;20021;-68
2023/01/12 10:37:42;;;;;;;10.82;2.60;;;;;;;;;;5021906;28;20086;-69
2023/01/12 10:40:31;;;;;;;6.95;2.55;;;;;;;;;;5031197;28;20536;-70
2023/01/12 10:43:20;;;;;;;5.97;1.73;;;;;;;;;;5045446;28;20024;-71
2023/01/12 10:46:12;;;;;;;12.77;2.28;;;;;;;;;;5033677;28;20433;-70
2023/01/12 10:49:12;;;;;;;4.85;1.50;;;;;;;;;;5043190;28;20022;-70
2023/01/12 10:52:03;;;;;;;3.67;1.55;;;;;;;;;;5034193;28;20120;-75
2023/01/12 10:54:48;;;;;;;6.07;1.20;;;;;;;;;;5044239;28;20033;-76
2023/01/12 10:57:34;;;;;;;7.72;2.75;;;;;;;;;;5032602;28;20495;-75
2023/01/12 11:00:23;;;;;;;7.05;2.15;;;;;;;;;;5030816;28;20052;-77
2023/01/12 11:03:26;;;;;;;4.20;1.35;;;;;;;;;;5053668;28;20302;-76
2023/01/12 11:06:26;;;;;;;5.03;1.83;;;;;;;;;;5038081;28;20100;-75
2023/01/12 11:09:11;;;;;;;;;;;;;;;;;;5029092;28;20115;-77
2023/01/12 11:11:57;;;;;;;4.40;1.35;;;;;;;;;;5047182;28;19987;-75
2023/01/12 11:14:55;;;;;;;3.65;1.23;;;;;;;;;;5036312;28;20113;-75
2023/01/12 11:17:51;;;;;;;3.47;1.20;;;;;;;;;;5050540;28;20042;-75
2023/01/12 11:20:47;;;;;;;6.03;1.42;;;;;;;;;;5036041;28;20032;-75
2023/01/12 11:23:39;;;;;;;5.78;1.10;;;;;;;;;;5027895;28;20079;-75
2023/01/12 11:26:36;;;;;;;4.43;1.15;;;;;;;;;;5040288;28;20033;-76
2023/01/12 11:29:21;;;;;;;5.70;1.23;;;;;;;;;;5043614;28;20451;-75
2023/01/12 11:32:35;;;;;;;1.95;0.85;;;;;;;;;;5045060;28;20499;-67
2023/01/12 11:35:23;;;;;;;2.17;0.80;;;;;;;;;;5042906;28;20065;-67
2023/01/12 11:38:15;;;;;;;1.52;1.10;;;;;;;;;;5047779;28;20090;-68
2023/01/12 11:41:01;;;;;;;1.52;0.85;;;;;;;;;;5034493;28;20041;-68
2023/01/12 11:43:54;;;;;;;1.73;0.82;;;;;;;;;;5050104;28;20326;-69
2023/01/12 11:46:43;;;;;;;2.55;0.90;;;;;;;;;;5035269;28;20033;-68
2023/01/12 11:49:32;;;;;;;4.60;1.13;;;;;;;;;;5038169;28;20051;-75
2023/01/12 11:52:17;;;;;;;2.65;1.38;;;;;;;;;;5031033;28;20064;-79
2023/01/12 11:55:03;;;;;;;3.15;0.85;;;;;;;;;;5033705;28;20033;-79
2023/01/12 11:58:07;;;;;;;2.50;0.82;;;;;;;;;;5029525;28;20111;-80
2023/01/12 12:01:03;;;;;;;2.58;0.90;;;;;;;;;;5026813;28;20022;-80
2023/01/12 12:03:54;;;;;;;4.43;1.08;;;;;;;;;;5022427;28;20108;-80
2023/01/12 12:06:59;;;;;;;3.55;1.10;;;;;;;;;;5033612;28;20089;-73
2023/01/12 12:09:48;;;;;;;6.95;1.25;;;;;;;;;;5030465;28;20021;-75
2023/01/12 12:12:40;;;;;;;2.47;1.00;;;;;;;;;;5037251;28;20040;-76
2023/01/12 12:15:44;;;;;;;5.68;1.48;;;;;;;;;;5031430;28;20498;-74
2023/01/12 12:18:29;;;;;;;6.72;1.42;;;;;;;;;;5039911;28;20057;-76
2023/01/12 12:21:22;;;;;;;3.50;1.20;;;;;;;;;;5031739;28;20042;-75
2023/01/12 12:24:26;;;;;;;4.25;1.25;;;;;;;;;;5025604;28;20047;-75
2023/01/12 12:27:14;;;;;;;4.72;1.67;;;;;;;;;;5023211;28;20033;-67
2023/01/12 12:30:18;;;;;;;3.70;0.98;;;;;;;;;;5049075;28;20037;-69
2023/01/12 12:33:09;;;;;;;3.80;0.85;;;;;;;;;;5036769;28;20124;-70
2023/01/12 12:36:06;;;;;;;4.22;1.10;;;;;;;;;;5040358;28;20041;-69
2023/01/12 12:39:10;;;;;;;2.45;1.00;;;;;;;;;;5055792;28;20032;-68
2023/01/12 12:45:16;;;;;;;8.02;1.65;;;;;;;;;;5048491;28;20076;-68
2023/01/12 12:48:16;;;;;;;0.88;0.70;;;;;;;;;;5027672;28;20044;-69
2023/01/12 12:51:02;;;;;;;3.78;1.17;;;;;;;;;;5035503;28;20072;-68
2023/01/12 12:53:49;;;;;;;7.05;1.27;;;;;;;;;;5034157;28;20017;-69
2023/01/12 12:56:35;;;;;;;4.38;1.83;;;;;;;;;;5036220;28;20112;-68
2023/01/12 12:59:32;;;;;;;2.17;1.05;;;;;;;;;;5047006;28;20033;-69
2023/01/12 13:02:32;;;;;;;5.43;1.40;;;;;;;;;;5050109;28;20025;-73
2023/01/12 13:05:46;;;;;;;2.78;1.20;;;;;;;;;;5047883;28;20053;-71
2023/01/12 13:08:33;;;;;;;2.55;1.25;;;;;;;;;;5046870;28;20091;-70
2023/01/12 13:11:19;;;;;;;3.42;1.05;;;;;;;;;;5039094;28;20017;-70
2023/01/12 13:14:15;;;;;;;1.48;0.70;;;;;;;;;;5022380;28;20094;-71
2023/01/12 13:17:02;;;;;;;3.38;0.90;;;;;;;;;;5033411;28;20149;-70
2023/01/12 13:19:48;;;;;;;3.60;0.90;;;;;;;;;;5048461;28;20029;-75
2023/01/12 13:22:44;;;;;;;4.13;0.90;;;;;;;;;;5022754;28;20532;-72
2023/01/12 13:25:29;;;;;;;1.45;0.77;;;;;;;;;;5041306;28;20033;-73
2023/01/12 13:28:18;;;;;;;2.92;0.82;;;;;;;;;;5031842;28;20068;-74
2023/01/12 13:31:23;;;;;;;2.53;1.10;;;;;;;;;;5000925;28;20021;-71
2023/01/12 13:34:28;;;;;;;4.05;0.90;;;;;;;;;;5042034;28;20029;-74
2023/01/12 13:37:30;;;;;;;2.10;0.88;;;;;;;;;;5025177;28;20108;-69
2023/01/12 13:40:25;;;;;;;2.58;0.90;;;;;;;;;;5042816;28;20482;-79
2023/01/12 13:43:22;;;;;;;5.07;1.17;;;;;;;;;;5054669;28;20036;-79
2023/01/12 13:46:10;;;;;;;3.30;1.42;;;;;;;;;;5032337;28;20128;-80
2023/01/12 13:48:55;;;;;;;1.63;0.73;;;;;;;;;;5040251;28;20026;-80
2023/01/12 13:51:43;;;;;;;2.22;0.80;;;;;;;;;;5042231;28;20119;-77
2023/01/12 13:54:29;;;;;;;1.25;0.63;;;;;;;;;;5027898;28;20108;-79
2023/01/12 13:57:18;;;;;;;4.43;0.70;;;;;;;;;;5033652;28;20495;-72
2023/01/12 14:00:08;;;;;;;3.97;0.95;;;;;;;;;;5043330;28;20021;-69
2023/01/12 14:02:54;;;;;;;1.80;1.08;;;;;;;;;;5044603;28;20049;-69
2023/01/12 14:05:51;;;;;;;2.72;1.10;;;;;;;;;;5039491;28;20049;-71
2023/01/12 14:08:49;;;;;;;1.35;0.70;;;;;;;;;;5035234;28;20029;-68
2023/01/12 14:11:34;;;;;;;4.07;0.90;;;;;;;;;;5032116;28;20031;-70
2023/01/12 14:17:56;;;;;;;1.25;0.90;;;;;;;;;;5039041;28;20100;-69
2023/01/12 14:20:43;;;;;;;2.15;0.80;;;;;;;;;;5035242;28;20017;-68
2023/01/12 14:23:29;;;;;;;2.42;1.42;;;;;;;;;;5018759;28;20481;-69
2023/01/12 14:26:21;;;;;;;2.70;0.93;;;;;;;;;;5028611;28;20037;-67
2023/01/12 14:29:07;;;;;;;4.15;0.80;;;;;;;;;;5048603;28;20033;-68
2023/01/12 14:31:52;;;;;;;1.30;0.70;;;;;;;;;;5036108;28;20030;-69
2023/01/12 14:34:40;;;;;;;1.48;0.80;;;;;;;;;;5045696;28;20033;-75
2023/01/12 14:37:27;;;;;;;3.97;1.08;;;;;;;;;;5031935;28;20025;-80
2023/01/12 14:40:32;;;;;;;4.47;0.90;;;;;;;;;;5020415;28;20028;-80
2023/01/12 14:46:25;;;;;;;2.55;0.77;;;;;;;;;;5054898;28;20240;-79
2023/01/12 14:49:19;;;;;;;3.23;1.07;;;;;;;;;;5026772;28;20033;-80
2023/01/12 14:52:16;;;;;;;2.85;0.85;;;;;;;;;;5020636;28;20021;-75
2023/01/12 14:55:13;;;;;;;3.65;0.90;;;;;;;;;;5048580;28;20017;-74
2023/01/12 14:58:00;;;;;;;2.25;0.95;;;;;;;;;;5025497;28;20491;-74
2023/01/12 15:00:46;;;;;;;2.60;1.00;;;;;;;;;;5037375;28;20029;-75
2023/01/12 15:03:31;;;;;;;1.73;0.80;;;;;;;;;;5034296;28;20040;-74
2023/01/12 15:06:17;;;;;;;1.63;0.50;;;;;;;;;;5037530;28;20687;-74
2023/01/12 15:09:02;;;;;;;2.33;1.05;;;;;;;;;;5036412;28;20119;-75
2023/01/12 15:11:47;;;;;;;5.47;1.00;;;;;;;;;;5041743;28;20074;-76
2023/01/12 15:14:32;;;;;;;1.80;0.98;;;;;;;;;;5050592;28;20032;-71
2023/01/12 15:26:37;;;;;;;2.40;0.88;;;;;;;;;;5036169;28;20029;-71
2023/01/12 15:29:22;;;;;;;1.48;0.85;;;;;;;;;;5016391;28;20500;-70
2023/01/12 15:32:19;;;;;;;2.15;0.88;;;;;;;;;;5040469;28;20100;-66
2023/01/12 15:35:20;;;;;;;1.92;0.98;;;;;;;;;;5038184;28;20028;-66
2023/01/12 15:38:05;;;;;;;0.93;0.70;;;;;;;;;;5035575;28;20032;-67
2023/01/12 15:40:50;;;;;;;5.45;0.98;;;;;;;;;;5035962;28;20091;-68
2023/01/12 15:43:35;;;;;;;2.45;0.93;;;;;;;;;;5030082;28;20082;-67
2023/01/12 15:46:20;;;;;;;2.22;0.90;;;;;;;;;;5035547;28;20115;-70
2023/01/12 15:49:06;;;;;;;3.10;1.15;;;;;;;;;;5024679;28;20033;-69
2023/01/12 15:51:51;;;;;;;2.15;0.95;;;;;;;;;;5054316;28;20024;-69
2023/01/12 15:54:36;;;;;;;2.30;0.80;;;;;;;;;;5038977;28;20047;-69
2023/01/12 15:57:22;;;;;;;2.67;1.05;;;;;;;;;;5036174;28;20022;-70
2023/01/12 16:00:12;;;;;;;2.38;0.93;;;;;;;;;;5041166;28;20025;-70
2023/01/12 16:02:57;;;;;;;1.88;0.80;;;;;;;;;;5031352;28;20045;-69
2023/01/12 16:05:45;;;;;;;5.10;1.42;;;;;;;;;;5020519;28;20554;-75
2023/01/12 16:08:30;;;;;;;3.33;1.27;;;;;;;;;;5036004;28;20117;-68
2023/01/12 16:11:18;;;;;;;3.75;0.90;;;;;;;;;;5043649;28;20101;-68
2023/01/12 16:14:04;;;;;;;4.35;1.38;;;;;;;;;;5038333;28;20445;-68
2023/01/12 16:16:49;;;;;;;3.75;1.45;;;;;;;;;;5043968;28;20033;-69
2023/01/12 16:19:39;;;;;;;2.78;1.30;;;;;;;;;;5029344;28;20124;-66
2023/01/12 16:22:26;;;;;;;1.58;0.95;;;;;;;;;;5047982;28;20088;-68
2023/01/12 16:25:12;;;;;;;5.18;1.15;;;;;;;;;;5045096;28;20514;-66
2023/01/12 16:27:59;;;;;;;4.47;0.93;;;;;;;;;;5041199;28;20037;-72
2023/01/12 16:30:45;;;;;;;5.68;1.48;;;;;;;;;;5032926;28;20514;-72
2023/01/12 16:33:30;;;;;;;4.38;0.98;;;;;;;;;;5042885;28;20040;-71
2023/01/12 16:36:16;;;;;;;3.40;1.42;;;;;;;;;;5034718;28;20028;-71
2023/01/12 16:39:01;;;;;;;1.98;1.10;;;;;;;;;;5041946;28;20031;-70
2023/01/12 16:41:46;;;;;;;5.53;1.55;;;;;;;;;;5042010;28;20638;-68
2023/01/12 16:44:36;;;;;;;3.53;1.10;;;;;;;;;;5038718;28;20041;-68
2023/01/12 16:47:21;;;;;;;2.40;1.10;;;;;;;;;;5045948;28;20388;-68
2023/01/12 16:50:06;;;;;;;1.92;1.15;;;;;;;;;;5036021;28;20033;-69
2023/01/12 16:52:51;;;;;;;5.97;2.60;;;;;;;;;;5033934;28;20408;-68
2023/01/12 16:55:37;;;;;;;1.83;0.93;;;;;;;;;;5048012;28;20033;-71
2023/01/12 16:58:22;;;;;;;2.45;0.90;;;;;;;;;;5034381;28;20111;-71
2023/01/12 17:01:11;;;;;;;4.03;0.90;;;;;;;;;;5032049;28;20119;-71
2023/01/12 17:03:56;;;;;;;6.20;1.50;;;;;;;;;;5029417;28;20431;-76
2023/01/12 17:06:41;;;;;;;2.08;0.95;;;;;;;;;;5034135;28;20299;-75
2023/01/12 17:09:27;;;;;;;3.20;1.30;;;;;;;;;;5029580;28;20064;-75
2023/01/12 17:12:12;;;;;;;1.63;0.90;;;;;;;;;;5047673;28;20031;-74
2023/01/12 17:14:57;;;;;;;2.47;1.30;;;;;;;;;;5028037;28;20025;-75
2023/01/12 17:17:43;;;;;;;1.63;0.95;;;;;;;;;;5042818;28;20047;-74
2023/01/12 17:20:28;;;;;;;4.25;1.13;;;;;;;;;;5043228;28;20047;-80
2023/01/12 17:23:14;;;;;;;3.30;0.95;;;;;;;;;;5035427;28;20068;-72
2023/01/12 17:26:02;;;;;;;3.20;1.70;;;;;;;;;;5037779;28;20037;-71
2023/01/12 17:28:48;;;;;;;2.20;0.93;;;;;;;;;;5037197;28;20040;-72
2023/01/12 17:31:33;;;;;;;4.65;1.65;;;;;;;;;;5043671;28;20271;-72